createdAt,value
2022-11-01T00:00:25.892Z,100.00
2022-11-01T00:01:22.979Z,100.00
2022-11-01T00:02:19.756Z,100.00
2022-11-01T00:03:16.545Z,100.00
2022-11-01T00:04:13.241Z,100.00
2022-11-01T00:05:10.523Z,100.00
2022-11-01T00:06:07.286Z,100.00
2022-11-01T00:07:04.024Z,100.00
2022-11-01T00:08:00.972Z,100.00
2022-11-01T00:08:57.929Z,100.00
2022-11-01T00:09:54.709Z,100.00
2022-11-01T00:10:51.404Z,100.00
2022-11-01T00:11:48.521Z,100.00
2022-11-01T00:12:45.971Z,100.00
2022-11-01T00:13:46.084Z,100.00
2022-11-01T00:14:42.784Z,100.00
2022-11-01T00:15:39.506Z,100.00
2022-11-01T00:16:36.449Z,100.00
2022-11-01T00:17:33.289Z,100.00
2022-11-01T00:18:30.054Z,100.00
2022-11-01T00:19:26.767Z,100.00
2022-11-01T00:20:23.488Z,100.00
2022-11-01T00:21:20.373Z,100.00
2022-11-01T00:22:17.066Z,100.00
2022-11-01T00:23:13.794Z,100.00
2022-11-01T00:24:10.626Z,100.00
2022-11-01T00:25:07.629Z,100.00
2022-11-01T00:26:04.561Z,100.00
2022-11-01T00:27:01.497Z,100.00
2022-11-01T00:27:58.555Z,100.00
2022-11-01T00:28:55.852Z,100.00
2022-11-01T00:29:52.538Z,100.00
2022-11-01T00:30:52.847Z,100.00
2022-11-01T00:31:50.048Z,100.00
2022-11-01T00:32:46.718Z,100.00
2022-11-01T00:33:43.702Z,100.00
2022-11-01T00:34:40.400Z,100.00
2022-11-01T00:35:37.186Z,100.00
2022-11-01T00:36:36.083Z,100.00
2022-11-01T00:37:32.807Z,100.00
2022-11-01T00:38:29.628Z,100.00
2022-11-01T00:39:30.639Z,100.00
2022-11-01T00:40:28.378Z,100.00
2022-11-01T00:41:26.609Z,100.00
2022-11-01T00:42:23.430Z,100.00
2022-11-01T00:43:20.248Z,100.00
2022-11-01T00:44:16.955Z,100.00
2022-11-01T00:45:13.907Z,100.00
2022-11-01T00:46:10.952Z,100.00
2022-11-01T00:47:08.078Z,100.00
2022-11-01T00:48:05.696Z,100.00
2022-11-01T00:49:02.480Z,100.00
2022-11-01T00:49:59.185Z,100.00
2022-11-01T00:50:55.976Z,100.00
2022-11-01T00:51:52.663Z,100.00
2022-11-01T00:52:49.489Z,100.00
2022-11-01T00:53:46.189Z,100.00
2022-11-01T00:54:43.040Z,100.00
2022-11-01T00:55:39.966Z,100.00
2022-11-01T00:56:36.767Z,100.00
2022-11-01T00:57:33.481Z,100.00
2022-11-01T00:58:30.729Z,100.00
2022-11-01T00:59:27.435Z,100.00
2022-11-01T01:00:24.981Z,100.00
2022-11-01T01:01:21.793Z,100.00
2022-11-01T01:02:18.664Z,100.00
2022-11-01T01:03:15.487Z,100.00
2022-11-01T01:04:12.289Z,100.00
2022-11-01T01:05:10.264Z,100.00
2022-11-01T01:06:06.985Z,100.00
2022-11-01T01:07:03.682Z,100.00
2022-11-01T01:08:00.415Z,100.00
2022-11-01T01:09:01.418Z,100.00
2022-11-01T01:09:58.128Z,100.00
2022-11-01T01:10:55.152Z,100.00
2022-11-01T01:11:51.848Z,100.00
2022-11-01T01:12:48.692Z,100.00
2022-11-01T01:13:45.376Z,100.00
2022-11-01T01:14:42.270Z,100.00
2022-11-01T01:15:39.836Z,100.00
2022-11-01T01:16:36.844Z,100.00
2022-11-01T01:17:33.927Z,100.00
2022-11-01T01:18:30.716Z,100.00
2022-11-01T01:19:29.592Z,100.00
2022-11-01T01:20:26.704Z,100.00
2022-11-01T01:21:23.380Z,100.00
2022-11-01T01:22:20.078Z,100.00
2022-11-01T01:23:16.744Z,100.00
2022-11-01T01:24:13.425Z,100.00
2022-11-01T01:25:10.923Z,100.00
2022-11-01T01:26:09.471Z,100.00
2022-11-01T01:27:06.212Z,100.00
2022-11-01T01:28:03.042Z,100.00
2022-11-01T01:29:00.639Z,100.00
2022-11-01T01:29:57.568Z,100.00
2022-11-01T01:30:54.322Z,100.00
2022-11-01T01:31:51.577Z,100.00
2022-11-01T01:32:48.218Z,100.00
2022-11-01T01:33:44.887Z,100.00
2022-11-01T01:34:41.665Z,100.00
2022-11-01T01:35:39.367Z,100.00
2022-11-01T01:36:36.215Z,100.00
2022-11-01T01:37:33.075Z,100.00
2022-11-01T01:38:30.051Z,100.00
2022-11-01T01:39:26.778Z,100.00
2022-11-01T01:40:23.499Z,100.00
2022-11-01T01:41:39.481Z,100.00
2022-11-01T01:42:39.246Z,100.00
2022-11-01T01:43:44.069Z,100.00
2022-11-01T01:45:26.814Z,100.00
2022-11-01T01:46:23.572Z,100.00
2022-11-01T01:47:27.845Z,100.00
2022-11-01T01:48:27.659Z,100.00
2022-11-01T01:49:24.396Z,100.00
2022-11-01T01:50:30.555Z,100.00
2022-11-01T01:51:29.872Z,100.00
2022-11-01T01:52:33.189Z,100.00
2022-11-01T01:53:34.729Z,100.00
2022-11-01T01:54:32.695Z,100.00
2022-11-01T01:55:57.738Z,100.00
2022-11-01T01:56:54.576Z,100.00
2022-11-01T01:57:54.982Z,100.00
2022-11-01T01:59:11.880Z,100.00
2022-11-01T02:00:09.423Z,100.00
2022-11-01T02:01:06.373Z,100.00
2022-11-01T02:02:03.703Z,100.00
2022-11-01T02:03:01.082Z,100.00
2022-11-01T02:03:58.835Z,100.00
2022-11-01T02:05:01.706Z,100.00
2022-11-01T02:06:14.712Z,100.00
2022-11-01T02:07:12.479Z,100.00
2022-11-01T02:08:09.494Z,100.00
2022-11-01T02:09:08.632Z,100.00
2022-11-01T02:10:06.581Z,100.00
2022-11-01T02:11:06.441Z,100.00
2022-11-01T02:12:04.242Z,100.00
2022-11-01T02:13:01.240Z,100.00
2022-11-01T02:13:59.011Z,100.00
2022-11-01T02:14:56.308Z,100.00
2022-11-01T02:16:01.786Z,100.00
2022-11-01T02:17:15.139Z,100.00
2022-11-01T02:18:34.870Z,100.00
2022-11-01T02:19:34.620Z,100.00
2022-11-01T02:20:43.364Z,100.00
2022-11-01T02:21:42.679Z,100.00
2022-11-01T02:23:16.312Z,100.00
2022-11-01T02:24:15.988Z,100.00
2022-11-01T02:25:48.128Z,100.00
2022-11-01T02:26:53.704Z,100.00
2022-11-01T02:27:56.029Z,100.00
2022-11-01T02:28:55.486Z,100.00
2022-11-01T02:30:12.332Z,100.00
2022-11-01T02:31:33.503Z,100.00
2022-11-01T02:32:39.261Z,100.00
2022-11-01T02:33:48.444Z,100.00
2022-11-01T02:35:06.172Z,100.00
2022-11-01T02:36:20.448Z,100.00
2022-11-01T02:37:39.847Z,100.00
2022-11-01T02:39:11.911Z,100.00
2022-11-01T02:40:15.894Z,100.00
2022-11-01T02:41:25.535Z,100.00
2022-11-01T02:42:33.097Z,100.00
2022-11-01T02:43:51.136Z,100.00
2022-11-01T02:45:11.775Z,100.00
2022-11-01T02:46:29.168Z,100.00
2022-11-01T02:47:30.879Z,100.00
2022-11-01T02:48:27.853Z,100.00
2022-11-01T02:49:51.505Z,100.00
2022-11-01T02:50:56.581Z,100.00
2022-11-01T02:51:56.409Z,100.00
2022-11-01T02:52:55.196Z,100.00
2022-11-01T02:53:51.909Z,100.00
2022-11-01T02:55:05.149Z,100.00
2022-11-01T02:56:01.845Z,100.00
2022-11-01T02:57:26.449Z,100.00
2022-11-01T02:58:27.726Z,100.00
2022-11-01T02:59:28.028Z,100.00
2022-11-01T03:00:25.933Z,100.00
2022-11-01T03:01:29.029Z,100.00
2022-11-01T03:02:43.193Z,100.00
2022-11-01T03:03:39.919Z,100.00
2022-11-01T03:04:37.604Z,100.00
2022-11-01T03:05:57.678Z,100.00
2022-11-01T03:07:01.226Z,100.00
2022-11-01T03:08:05.221Z,100.00
2022-11-01T03:09:07.281Z,100.00
2022-11-01T03:10:04.678Z,100.00
2022-11-01T03:11:06.693Z,100.00
2022-11-01T03:12:22.721Z,100.00
2022-11-01T03:13:29.174Z,100.00
2022-11-01T03:15:00.593Z,100.00
2022-11-01T03:16:24.044Z,100.00
2022-11-01T03:17:40.937Z,100.00
2022-11-01T03:18:47.732Z,100.00
2022-11-01T03:20:00.415Z,100.00
2022-11-01T03:21:16.897Z,100.00
2022-11-01T03:22:19.904Z,100.00
2022-11-01T03:23:25.961Z,100.00
2022-11-01T03:24:28.452Z,100.00
2022-11-01T03:25:40.699Z,100.00
2022-11-01T03:26:42.891Z,100.00
2022-11-01T03:27:44.697Z,100.00
2022-11-01T03:28:51.503Z,100.00
2022-11-01T03:29:57.129Z,100.00
2022-11-01T03:31:08.980Z,100.00
2022-11-01T03:32:08.847Z,100.00
2022-11-01T03:33:06.024Z,100.00
2022-11-01T03:34:08.672Z,100.00
2022-11-01T03:35:13.750Z,100.00
2022-11-01T03:36:15.553Z,100.00
2022-11-01T03:37:14.558Z,100.00
2022-11-01T03:38:19.020Z,100.00
2022-11-01T03:39:25.164Z,100.00
2022-11-01T03:40:26.228Z,100.00
2022-11-01T03:41:27.452Z,100.00
2022-11-01T03:42:25.081Z,100.00
2022-11-01T03:43:26.508Z,100.00
2022-11-01T03:44:23.624Z,100.00
2022-11-01T03:45:25.645Z,100.00
2022-11-01T03:46:22.873Z,100.00
2022-11-01T03:47:19.927Z,100.00
2022-11-01T03:48:16.611Z,100.00
2022-11-01T03:49:18.706Z,100.00
2022-11-01T03:50:18.600Z,100.00
2022-11-01T03:51:15.300Z,100.00
2022-11-01T03:52:12.377Z,100.00
2022-11-01T03:53:09.061Z,100.00
2022-11-01T03:54:10.906Z,100.00
2022-11-01T03:55:20.583Z,100.00
2022-11-01T03:56:17.449Z,100.00
2022-11-01T03:57:14.166Z,100.00
2022-11-01T03:58:11.045Z,100.00
2022-11-01T03:59:10.006Z,100.00
2022-11-01T04:00:08.754Z,100.00
2022-11-01T04:01:05.581Z,100.00
2022-11-01T04:02:02.501Z,100.00
2022-11-01T04:03:00.490Z,100.00
2022-11-01T04:03:57.463Z,100.00
2022-11-01T04:04:54.178Z,100.00
2022-11-01T04:05:50.849Z,100.00
2022-11-01T04:06:47.571Z,100.00
2022-11-01T04:07:45.347Z,100.00
2022-11-01T04:08:42.076Z,100.00
2022-11-01T04:09:38.805Z,100.00
2022-11-01T04:10:35.872Z,100.00
2022-11-01T04:11:32.933Z,100.00
2022-11-01T04:12:29.658Z,100.00
2022-11-01T04:13:26.639Z,100.00
2022-11-01T04:14:41.553Z,100.00
2022-11-01T04:15:57.018Z,100.00
2022-11-01T04:17:12.280Z,100.00
2022-11-01T04:18:33.446Z,100.00
2022-11-01T04:19:48.613Z,100.00
2022-11-01T04:20:45.334Z,100.00
2022-11-01T04:21:42.145Z,100.00
2022-11-01T04:22:39.111Z,100.00
2022-11-01T04:23:36.392Z,100.00
2022-11-01T04:24:33.075Z,100.00
2022-11-01T04:25:30.702Z,100.00
2022-11-01T04:26:27.398Z,100.00
2022-11-01T04:27:24.100Z,100.00
2022-11-01T04:28:20.773Z,100.00
2022-11-01T04:29:17.658Z,100.00
2022-11-01T04:30:14.468Z,100.00
2022-11-01T04:31:11.368Z,100.00
2022-11-01T04:32:08.075Z,100.00
2022-11-01T04:33:04.962Z,100.00
2022-11-01T04:34:03.968Z,100.00
2022-11-01T04:35:00.740Z,100.00
2022-11-01T04:35:57.568Z,100.00
2022-11-01T04:36:54.261Z,100.00
2022-11-01T04:37:59.146Z,100.00
2022-11-01T04:38:58.158Z,100.00
2022-11-01T04:39:54.847Z,100.00
2022-11-01T04:40:51.518Z,100.00
2022-11-01T04:41:48.201Z,100.00
2022-11-01T04:42:44.904Z,100.00
2022-11-01T04:43:41.597Z,100.00
2022-11-01T04:44:38.286Z,100.00
2022-11-01T04:45:35.497Z,100.00
2022-11-01T04:46:32.239Z,100.00
2022-11-01T04:47:29.028Z,100.00
2022-11-01T04:48:27.610Z,100.00
2022-11-01T04:49:24.286Z,100.00
2022-11-01T04:50:22.007Z,100.00
2022-11-01T04:51:18.704Z,100.00
2022-11-01T04:52:15.385Z,100.00
2022-11-01T04:53:12.303Z,100.00
2022-11-01T04:54:09.080Z,100.00
2022-11-01T04:55:06.233Z,100.00
2022-11-01T04:56:05.393Z,100.00
2022-11-01T04:57:02.200Z,100.00
2022-11-01T04:57:59.231Z,100.00
2022-11-01T04:58:56.925Z,100.00
2022-11-01T04:59:55.643Z,100.00
2022-11-01T05:00:52.395Z,100.00
2022-11-01T05:01:49.248Z,100.00
2022-11-01T05:02:46.147Z,100.00
2022-11-01T05:03:43.399Z,100.00
2022-11-01T05:04:40.069Z,100.00
2022-11-01T05:05:37.044Z,100.00
2022-11-01T05:06:33.767Z,100.00
2022-11-01T05:07:30.478Z,100.00
2022-11-01T05:08:27.723Z,100.00
2022-11-01T05:09:24.411Z,100.00
2022-11-01T05:10:21.135Z,100.00
2022-11-01T05:11:17.874Z,100.00
2022-11-01T05:12:14.629Z,100.00
2022-11-01T05:13:13.125Z,100.00
2022-11-01T05:14:09.849Z,100.00
2022-11-01T05:15:07.221Z,100.00
2022-11-01T05:16:20.911Z,100.00
2022-11-01T05:17:18.015Z,100.00
2022-11-01T05:18:14.795Z,100.00
2022-11-01T05:19:11.479Z,100.00
2022-11-01T05:20:08.949Z,100.00
2022-11-01T05:21:05.819Z,100.00
2022-11-01T05:22:03.885Z,100.00
2022-11-01T05:23:02.310Z,100.00
2022-11-01T05:23:59.232Z,100.00
2022-11-01T05:24:56.002Z,100.00
2022-11-01T05:25:52.684Z,100.00
2022-11-01T05:26:50.026Z,100.00
2022-11-01T05:27:46.735Z,100.00
2022-11-01T05:28:43.475Z,100.00
2022-11-01T05:29:40.163Z,100.00
2022-11-01T05:30:38.056Z,100.00
2022-11-01T05:31:34.775Z,100.00
2022-11-01T05:32:31.982Z,100.00
2022-11-01T05:33:28.689Z,100.00
2022-11-01T05:34:25.394Z,100.00
2022-11-01T05:35:22.081Z,100.00
2022-11-01T05:36:18.845Z,100.00
2022-11-01T05:37:15.889Z,100.00
2022-11-01T05:38:12.600Z,100.00
2022-11-01T05:39:09.514Z,100.00
2022-11-01T05:40:06.963Z,100.00
2022-11-01T05:41:04.432Z,100.00
2022-11-01T05:42:02.908Z,100.00
2022-11-01T05:43:00.242Z,100.00
2022-11-01T05:43:57.228Z,100.00
2022-11-01T05:44:53.928Z,100.00
2022-11-01T05:45:51.325Z,100.00
2022-11-01T05:46:48.050Z,100.00
2022-11-01T05:47:44.784Z,100.00
2022-11-01T05:48:42.257Z,100.00
2022-11-01T05:49:39.069Z,100.00
2022-11-01T05:50:35.761Z,100.00
2022-11-01T05:51:32.434Z,100.00
2022-11-01T05:52:29.192Z,100.00
2022-11-01T05:53:25.924Z,100.00
2022-11-01T05:54:22.707Z,100.00
2022-11-01T05:55:19.453Z,100.00
2022-11-01T05:56:17.601Z,100.00
2022-11-01T05:57:14.293Z,100.00
2022-11-01T05:58:11.022Z,100.00
2022-11-01T05:59:07.741Z,100.00
2022-11-01T06:00:05.504Z,100.00
2022-11-01T06:01:05.893Z,100.00
2022-11-01T06:02:02.815Z,100.00
2022-11-01T06:03:00.581Z,100.00
2022-11-01T06:04:01.884Z,100.00
2022-11-01T06:05:02.611Z,100.00
2022-11-01T06:06:00.453Z,100.00
2022-11-01T06:06:57.192Z,100.00
2022-11-01T06:07:54.045Z,100.00
2022-11-01T06:08:50.789Z,100.00
2022-11-01T06:09:47.506Z,100.00
2022-11-01T06:10:44.610Z,100.00
2022-11-01T06:11:41.958Z,100.00
2022-11-01T06:12:38.730Z,100.00
2022-11-01T06:13:35.426Z,100.00
2022-11-01T06:14:32.181Z,100.00
2022-11-01T06:15:29.064Z,100.00
2022-11-01T06:16:26.721Z,100.00
2022-11-01T06:17:23.431Z,100.00
2022-11-01T06:18:20.137Z,100.00
2022-11-01T06:19:16.838Z,100.00
2022-11-01T06:20:13.558Z,100.00
2022-11-01T06:21:10.377Z,100.00
2022-11-01T06:22:07.072Z,100.00
2022-11-01T06:23:11.140Z,100.00
2022-11-01T06:24:08.045Z,100.00
2022-11-01T06:25:06.242Z,100.00
2022-11-01T06:26:21.811Z,100.00
2022-11-01T06:27:18.543Z,100.00
2022-11-01T06:28:15.736Z,100.00
2022-11-01T06:29:12.381Z,100.00
2022-11-01T06:30:10.025Z,100.00
2022-11-01T06:31:06.906Z,100.00
2022-11-01T06:32:04.956Z,100.00
2022-11-01T06:33:02.414Z,100.00
2022-11-01T06:33:59.678Z,100.00
2022-11-01T06:34:56.400Z,100.00
2022-11-01T06:35:53.149Z,100.00
2022-11-01T06:36:49.840Z,100.00
2022-11-01T06:37:47.334Z,100.00
2022-11-01T06:38:44.113Z,100.00
2022-11-01T06:39:40.799Z,100.00
2022-11-01T06:40:37.699Z,100.00
2022-11-01T06:41:34.427Z,100.00
2022-11-01T06:42:31.176Z,100.00
2022-11-01T06:43:28.104Z,100.00
2022-11-01T06:44:24.798Z,100.00
2022-11-01T06:45:21.505Z,100.00
2022-11-01T06:46:18.249Z,100.00
2022-11-01T06:47:14.967Z,100.00
2022-11-01T06:48:11.640Z,100.00
2022-11-01T06:49:08.407Z,100.00
2022-11-01T06:50:05.536Z,100.00
2022-11-01T06:51:03.254Z,100.00
2022-11-01T06:52:00.066Z,100.00
2022-11-01T06:52:58.442Z,100.00
2022-11-01T06:53:55.335Z,100.00
2022-11-01T06:54:54.741Z,100.00
2022-11-01T06:55:52.569Z,100.00
2022-11-01T06:56:49.544Z,100.00
2022-11-01T06:57:54.845Z,100.00
2022-11-01T06:58:51.631Z,100.00
2022-11-01T06:59:48.344Z,100.00
2022-11-01T07:00:45.093Z,100.00
2022-11-01T07:01:42.494Z,100.00
2022-11-01T07:02:39.541Z,100.00
2022-11-01T07:03:36.327Z,100.00
2022-11-01T07:04:33.173Z,100.00
2022-11-01T07:05:36.050Z,100.00
2022-11-01T07:06:34.091Z,100.00
2022-11-01T07:07:30.805Z,100.00
2022-11-01T07:08:27.522Z,100.00
2022-11-01T07:09:24.208Z,100.00
2022-11-01T07:10:21.749Z,100.00
2022-11-01T07:11:18.446Z,100.00
2022-11-01T07:12:15.157Z,100.00
2022-11-01T07:13:13.919Z,100.00
2022-11-01T07:14:10.725Z,100.00
2022-11-01T07:15:07.808Z,100.00
2022-11-01T07:16:05.425Z,100.00
2022-11-01T07:17:02.149Z,100.00
2022-11-01T07:18:05.344Z,100.00
2022-11-01T07:19:02.392Z,100.00
2022-11-01T07:19:59.079Z,100.00
2022-11-01T07:20:55.990Z,100.00
2022-11-01T07:21:52.669Z,100.00
2022-11-01T07:22:57.485Z,100.00
2022-11-01T07:23:54.342Z,100.00
2022-11-01T07:24:51.144Z,100.00
2022-11-01T07:25:52.824Z,100.00
2022-11-01T07:26:49.734Z,100.00
2022-11-01T07:27:46.433Z,100.00
2022-11-01T07:28:43.151Z,100.00
2022-11-01T07:29:41.633Z,100.00
2022-11-01T07:30:39.325Z,100.00
2022-11-01T07:31:38.831Z,100.00
2022-11-01T07:32:39.020Z,100.00
2022-11-01T07:33:36.708Z,100.00
2022-11-01T07:34:33.618Z,100.00
2022-11-01T07:35:30.977Z,100.00
2022-11-01T07:36:27.684Z,100.00
2022-11-01T07:37:29.137Z,100.00
2022-11-01T07:38:25.877Z,100.00
2022-11-01T07:39:22.571Z,100.00
2022-11-01T07:40:19.347Z,100.00
2022-11-01T07:41:16.027Z,100.00
2022-11-01T07:42:12.932Z,100.00
2022-11-01T07:43:09.640Z,100.00
2022-11-01T07:44:06.360Z,100.00
2022-11-01T07:45:03.161Z,100.00
2022-11-01T07:46:00.793Z,100.00
2022-11-01T07:46:57.500Z,100.00
2022-11-01T07:48:10.517Z,100.00
2022-11-01T07:49:07.345Z,100.00
2022-11-01T07:50:05.894Z,100.00
2022-11-01T07:51:05.735Z,100.00
2022-11-01T07:52:04.239Z,100.00
2022-11-01T07:53:06.114Z,100.00
2022-11-01T07:54:03.127Z,100.00
2022-11-01T07:54:59.875Z,100.00
2022-11-01T07:55:56.579Z,100.00
2022-11-01T07:56:53.277Z,100.00
2022-11-01T07:57:49.953Z,100.00
2022-11-01T07:58:46.612Z,100.00
2022-11-01T07:59:43.337Z,100.00
2022-11-01T08:00:43.109Z,100.00
2022-11-01T08:01:39.924Z,100.00
2022-11-01T08:02:36.751Z,100.00
2022-11-01T08:03:33.519Z,100.00
2022-11-01T08:04:30.214Z,100.00
2022-11-01T08:05:27.012Z,100.00
2022-11-01T08:06:23.836Z,100.00
2022-11-01T08:07:20.547Z,100.00
2022-11-01T08:08:18.256Z,100.00
2022-11-01T08:09:14.963Z,100.00
2022-11-01T08:10:12.895Z,100.00
2022-11-01T08:11:09.725Z,100.00
2022-11-01T08:12:06.872Z,100.00
2022-11-01T08:13:25.919Z,100.00
2022-11-01T08:14:22.608Z,100.00
2022-11-01T08:15:19.339Z,100.00
2022-11-01T08:16:18.293Z,100.00
2022-11-01T08:17:15.115Z,100.00
2022-11-01T08:18:12.081Z,100.00
2022-11-01T08:19:10.426Z,100.00
2022-11-01T08:20:08.078Z,100.00
2022-11-01T08:21:05.049Z,100.00
2022-11-01T08:22:01.812Z,100.00
2022-11-01T08:22:58.609Z,100.00
2022-11-01T08:23:55.293Z,100.00
2022-11-01T08:24:52.360Z,100.00
2022-11-01T08:25:49.399Z,100.00
2022-11-01T08:26:46.341Z,100.00
2022-11-01T08:27:43.106Z,100.00
2022-11-01T08:28:39.841Z,100.00
2022-11-01T08:29:36.556Z,100.00
2022-11-01T08:30:33.968Z,100.00
2022-11-01T08:31:30.722Z,100.00
2022-11-01T08:32:27.404Z,100.00
2022-11-01T08:33:24.099Z,100.00
2022-11-01T08:34:20.864Z,100.00
2022-11-01T08:35:17.652Z,100.00
2022-11-01T08:36:15.287Z,100.00
2022-11-01T08:37:11.980Z,100.00
2022-11-01T08:38:08.801Z,100.00
2022-11-01T08:39:05.541Z,100.00
2022-11-01T08:40:03.347Z,100.00
2022-11-01T08:41:00.507Z,100.00
2022-11-01T08:41:59.381Z,100.00
2022-11-01T08:42:56.610Z,100.00
2022-11-01T08:43:53.328Z,100.00
2022-11-01T08:44:50.037Z,100.00
2022-11-01T08:45:47.213Z,100.00
2022-11-01T08:46:44.416Z,100.00
2022-11-01T08:47:41.761Z,100.00
2022-11-01T08:48:38.449Z,100.00
2022-11-01T08:49:35.162Z,100.00
2022-11-01T08:50:33.946Z,100.00
2022-11-01T08:51:32.674Z,100.00
2022-11-01T08:52:29.407Z,100.00
2022-11-01T08:53:26.099Z,100.00
2022-11-01T08:54:22.891Z,100.00
2022-11-01T08:55:19.759Z,100.00
2022-11-01T08:56:16.482Z,100.00
2022-11-01T08:57:13.264Z,100.00
2022-11-01T08:58:10.072Z,100.00
2022-11-01T08:59:06.837Z,100.00
2022-11-01T09:00:07.032Z,100.00
2022-11-01T09:01:03.832Z,100.00
2022-11-01T09:02:00.705Z,100.00
2022-11-01T09:02:57.640Z,100.00
2022-11-01T09:04:01.319Z,100.00
2022-11-01T09:04:58.001Z,100.00
2022-11-01T09:05:57.207Z,100.00
2022-11-01T09:06:53.992Z,99.11
2022-11-01T09:07:56.859Z,98.41
2022-11-01T09:08:53.577Z,98.31
2022-11-01T09:09:50.264Z,97.67
2022-11-01T09:10:47.001Z,96.91
2022-11-01T09:11:44.885Z,97.60
2022-11-01T09:12:42.350Z,96.63
2022-11-01T09:13:39.037Z,94.70
2022-11-01T09:14:36.104Z,93.99
2022-11-01T09:15:33.690Z,94.59
2022-11-01T09:16:30.656Z,95.06
2022-11-01T09:17:27.606Z,96.03
2022-11-01T09:18:24.338Z,96.10
2022-11-01T09:19:21.088Z,96.10
2022-11-01T09:20:17.806Z,95.72
2022-11-01T09:21:15.025Z,95.79
2022-11-01T09:22:11.803Z,94.32
2022-11-01T09:23:08.500Z,94.44
2022-11-01T09:24:05.310Z,94.19
2022-11-01T09:25:02.122Z,94.71
2022-11-01T09:26:07.779Z,94.92
2022-11-01T09:27:05.289Z,94.38
2022-11-01T09:28:01.992Z,91.89
2022-11-01T09:28:58.813Z,92.57
2022-11-01T09:29:55.563Z,91.11
2022-11-01T09:31:01.534Z,90.85
2022-11-01T09:32:08.979Z,89.39
2022-11-01T09:33:07.163Z,89.92
2022-11-01T09:34:03.849Z,88.73
2022-11-01T09:35:00.729Z,88.28
2022-11-01T09:35:59.674Z,88.46
2022-11-01T09:36:56.675Z,88.13
2022-11-01T09:38:01.641Z,88.16
2022-11-01T09:38:59.461Z,88.27
2022-11-01T09:39:56.201Z,87.18
2022-11-01T09:41:06.921Z,86.65
2022-11-01T09:42:19.118Z,87.25
2022-11-01T09:43:22.151Z,86.57
2022-11-01T09:44:26.131Z,85.93
2022-11-01T09:45:29.541Z,84.87
2022-11-01T09:46:32.043Z,85.11
2022-11-01T09:47:30.989Z,84.80
2022-11-01T09:48:32.047Z,85.20
2022-11-01T09:49:34.937Z,84.53
2022-11-01T09:50:36.738Z,84.49
2022-11-01T09:51:33.576Z,83.84
2022-11-01T09:52:30.411Z,83.52
2022-11-01T09:53:29.752Z,84.05
2022-11-01T09:54:28.064Z,84.26
2022-11-01T09:55:55.121Z,84.55
2022-11-01T09:57:26.730Z,82.51
2022-11-01T09:58:26.468Z,82.32
2022-11-01T09:59:29.105Z,82.29
2022-11-01T10:00:35.364Z,82.23
2022-11-01T10:02:05.843Z,82.00
2022-11-01T10:03:39.360Z,81.71
2022-11-01T10:05:18.600Z,80.65
2022-11-01T10:06:27.320Z,80.49
2022-11-01T10:07:27.048Z,80.27
2022-11-01T10:08:41.601Z,79.88
2022-11-01T10:10:06.575Z,79.64
2022-11-01T10:11:06.103Z,80.37
2022-11-01T10:12:16.400Z,79.53
2022-11-01T10:13:48.661Z,79.71
2022-11-01T10:15:11.573Z,79.50
2022-11-01T10:16:10.777Z,78.76
2022-11-01T10:17:16.668Z,79.29
2022-11-01T10:18:45.261Z,77.17
2022-11-01T10:19:50.172Z,76.58
2022-11-01T10:20:48.336Z,76.39
2022-11-01T10:21:50.007Z,76.83
2022-11-01T10:22:50.942Z,76.15
2022-11-01T10:23:51.427Z,76.36
2022-11-01T10:24:58.019Z,75.40
2022-11-01T10:25:54.949Z,75.14
2022-11-01T10:27:07.122Z,75.58
2022-11-01T10:28:32.292Z,75.91
2022-11-01T10:29:41.805Z,76.16
2022-11-01T10:30:48.860Z,75.83
2022-11-01T10:31:52.791Z,75.74
2022-11-01T10:32:54.555Z,75.75
2022-11-01T10:34:04.882Z,75.73
2022-11-01T10:35:14.813Z,75.29
2022-11-01T10:36:35.748Z,74.33
2022-11-01T10:37:57.323Z,73.73
2022-11-01T10:40:35.482Z,74.13
2022-11-01T10:41:42.453Z,73.47
2022-11-01T10:42:39.230Z,73.13
2022-11-01T10:43:55.891Z,72.54
2022-11-01T10:44:57.994Z,73.09
2022-11-01T10:45:59.247Z,72.95
2022-11-01T10:46:59.616Z,72.49
2022-11-01T10:47:59.497Z,71.81
2022-11-01T10:49:05.392Z,71.85
2022-11-01T10:50:15.608Z,71.83
2022-11-01T10:51:17.425Z,70.84
2022-11-01T10:52:21.065Z,69.46
2022-11-01T10:53:20.537Z,69.31
2022-11-01T10:54:25.725Z,68.84
2022-11-01T10:55:50.002Z,67.88
2022-11-01T10:56:52.621Z,67.75
2022-11-01T10:58:15.364Z,67.99
2022-11-01T10:59:22.818Z,68.96
2022-11-01T11:00:21.118Z,67.92
2022-11-01T11:01:26.598Z,68.09
2022-11-01T11:02:35.859Z,68.97
2022-11-01T11:03:33.264Z,68.59
2022-11-01T11:04:30.098Z,68.77
2022-11-01T11:05:30.749Z,68.22
2022-11-01T11:06:27.779Z,68.26
2022-11-01T11:07:29.605Z,67.55
2022-11-01T11:08:27.081Z,67.68
2022-11-01T11:09:34.900Z,67.29
2022-11-01T11:10:32.142Z,66.61
2022-11-01T11:11:40.673Z,65.48
2022-11-01T11:12:37.456Z,66.09
2022-11-01T11:13:35.642Z,66.42
2022-11-01T11:14:34.820Z,65.79
2022-11-01T11:15:53.808Z,66.08
2022-11-01T11:16:55.934Z,65.91
2022-11-01T11:17:59.609Z,65.92
2022-11-01T11:19:16.109Z,65.10
2022-11-01T11:20:25.381Z,65.15
2022-11-01T11:21:27.791Z,64.09
2022-11-01T11:22:26.470Z,64.22
2022-11-01T11:23:29.718Z,64.04
2022-11-01T11:24:34.615Z,63.61
2022-11-01T11:25:53.660Z,63.47
2022-11-01T11:26:54.755Z,63.44
2022-11-01T11:27:53.150Z,62.10
2022-11-01T11:28:54.775Z,61.67
2022-11-01T11:29:57.699Z,61.23
2022-11-01T11:30:54.900Z,61.61
2022-11-01T11:31:59.353Z,61.50
2022-11-01T11:32:58.570Z,60.65
2022-11-01T11:34:19.502Z,60.21
2022-11-01T11:35:25.087Z,60.06
2022-11-01T11:36:29.403Z,59.58
2022-11-01T11:37:30.160Z,58.55
2022-11-01T11:38:45.925Z,58.95
2022-11-01T11:40:00.777Z,58.95
2022-11-01T11:40:57.498Z,59.41
2022-11-01T11:41:54.833Z,59.93
2022-11-01T11:42:55.009Z,58.70
2022-11-01T11:43:51.703Z,58.54
2022-11-01T11:44:55.751Z,58.01
2022-11-01T11:46:04.951Z,58.61
2022-11-01T11:47:03.169Z,58.32
2022-11-01T11:48:21.789Z,58.45
2022-11-01T11:49:28.068Z,58.17
2022-11-01T11:50:32.281Z,58.48
2022-11-01T11:51:32.503Z,58.40
2022-11-01T11:52:38.567Z,57.64
2022-11-01T11:53:35.562Z,56.16
2022-11-01T11:54:37.739Z,56.53
2022-11-01T11:55:37.999Z,56.53
2022-11-01T11:56:34.786Z,56.57
2022-11-01T11:57:31.816Z,56.86
2022-11-01T11:58:40.738Z,57.77
2022-11-01T11:59:40.566Z,57.29
2022-11-01T12:00:39.260Z,57.19
2022-11-01T12:01:36.271Z,56.39
2022-11-01T12:02:38.312Z,56.77
2022-11-01T12:03:50.910Z,56.77
2022-11-01T12:04:55.029Z,56.67
2022-11-01T12:06:05.796Z,56.29
2022-11-01T12:07:03.286Z,56.17
2022-11-01T12:08:00.697Z,56.68
2022-11-01T12:08:59.619Z,56.22
2022-11-01T12:10:17.804Z,56.19
2022-11-01T12:11:15.349Z,55.62
2022-11-01T12:12:27.854Z,55.55
2022-11-01T12:13:34.965Z,55.65
2022-11-01T12:14:37.641Z,54.83
2022-11-01T12:15:41.154Z,55.49
2022-11-01T12:16:42.539Z,55.05
2022-11-01T12:17:47.058Z,54.83
2022-11-01T12:19:03.771Z,54.58
2022-11-01T12:20:14.187Z,55.20
2022-11-01T12:21:19.427Z,54.73
2022-11-01T12:22:16.423Z,54.80
2022-11-01T12:23:22.753Z,54.24
2022-11-01T12:24:31.890Z,53.38
2022-11-01T12:25:29.210Z,53.63
2022-11-01T12:26:30.810Z,53.53
2022-11-01T12:27:28.806Z,54.04
2022-11-01T12:28:37.812Z,54.12
2022-11-01T12:29:57.514Z,53.92
2022-11-01T12:31:04.195Z,53.86
2022-11-01T12:32:20.905Z,53.84
2022-11-01T12:33:30.192Z,53.50
2022-11-01T12:34:38.366Z,54.39
2022-11-01T12:35:44.351Z,53.90
2022-11-01T12:36:58.609Z,53.92
2022-11-01T12:38:29.109Z,52.83
2022-11-01T12:39:40.943Z,51.69
2022-11-01T12:40:41.100Z,51.18
2022-11-01T12:41:56.195Z,51.67
2022-11-01T12:43:03.700Z,51.25
2022-11-01T12:44:26.396Z,51.32
2022-11-01T12:45:40.813Z,51.17
2022-11-01T12:47:00.817Z,51.64
2022-11-01T12:48:07.802Z,51.52
2022-11-01T12:49:32.965Z,51.50